sensor_id;sensor_type;location;lat;lon;timestamp;P1;durP1;ratioP1;P2;durP2;ratioP2
64826;SDS011;51265;53.972;12.286;2024-01-07T00:01:24;2.45;;;0.85;;
64826;SDS011;51265;53.972;12.286;2024-01-07T00:03:51;4.05;;;0.90;;
64826;SDS011;51265;53.972;12.286;2024-01-07T00:06:18;0.88;;;0.50;;
64826;SDS011;51265;53.972;12.286;2024-01-07T00:08:44;1.40;;;0.70;;
64826;SDS011;51265;53.972;12.286;2024-01-07T00:11:10;1.27;;;0.90;;
64826;SDS011;51265;53.972;12.286;2024-01-07T00:13:36;1.42;;;0.70;;
64826;SDS011;51265;53.972;12.286;2024-01-07T00:16:02;4.78;;;0.95;;
64826;SDS011;51265;53.972;12.286;2024-01-07T00:18:28;1.20;;;0.60;;
64826;SDS011;51265;53.972;12.286;2024-01-07T00:20:55;1.63;;;0.80;;
64826;SDS011;51265;53.972;12.286;2024-01-07T00:23:21;1.23;;;0.80;;
64826;SDS011;51265;53.972;12.286;2024-01-07T00:25:47;2.45;;;0.90;;
64826;SDS011;51265;53.972;12.286;2024-01-07T00:28:13;0.98;;;0.57;;
64826;SDS011;51265;53.972;12.286;2024-01-07T00:30:40;1.55;;;0.95;;
64826;SDS011;51265;53.972;12.286;2024-01-07T00:33:06;1.33;;;0.75;;
64826;SDS011;51265;53.972;12.286;2024-01-07T00:35:32;3.78;;;0.77;;
64826;SDS011;51265;53.972;12.286;2024-01-07T00:37:58;2.42;;;1.02;;
64826;SDS011;51265;53.972;12.286;2024-01-07T00:40:24;1.77;;;0.88;;
64826;SDS011;51265;53.972;12.286;2024-01-07T00:42:52;1.98;;;0.90;;
64826;SDS011;51265;53.972;12.286;2024-01-07T00:45:18;1.35;;;0.60;;
64826;SDS011;51265;53.972;12.286;2024-01-07T00:47:44;1.00;;;0.70;;
64826;SDS011;51265;53.972;12.286;2024-01-07T00:50:10;1.50;;;0.90;;
64826;SDS011;51265;53.972;12.286;2024-01-07T00:52:36;1.85;;;0.80;;
64826;SDS011;51265;53.972;12.286;2024-01-07T00:55:06;1.42;;;0.73;;
64826;SDS011;51265;53.972;12.286;2024-01-07T00:57:32;1.33;;;0.90;;
64826;SDS011;51265;53.972;12.286;2024-01-07T01:00:00;1.77;;;1.02;;
64826;SDS011;51265;53.972;12.286;2024-01-07T01:02:30;2.60;;;0.73;;
64826;SDS011;51265;53.972;12.286;2024-01-07T01:04:56;1.63;;;0.75;;
64826;SDS011;51265;53.972;12.286;2024-01-07T01:07:23;2.35;;;1.00;;
64826;SDS011;51265;53.972;12.286;2024-01-07T01:09:49;2.38;;;0.82;;
64826;SDS011;51265;53.972;12.286;2024-01-07T01:12:15;2.58;;;0.70;;
64826;SDS011;51265;53.972;12.286;2024-01-07T01:14:41;1.65;;;0.80;;
64826;SDS011;51265;53.972;12.286;2024-01-07T01:17:08;2.92;;;1.05;;
64826;SDS011;51265;53.972;12.286;2024-01-07T01:19:34;1.42;;;0.70;;
64826;SDS011;51265;53.972;12.286;2024-01-07T01:22:00;2.75;;;0.90;;
64826;SDS011;51265;53.972;12.286;2024-01-07T01:24:26;1.75;;;0.60;;
64826;SDS011;51265;53.972;12.286;2024-01-07T01:26:52;1.90;;;0.77;;
64826;SDS011;51265;53.972;12.286;2024-01-07T01:29:19;2.47;;;1.00;;
64826;SDS011;51265;53.972;12.286;2024-01-07T01:31:45;1.75;;;1.10;;
64826;SDS011;51265;53.972;12.286;2024-01-07T01:34:11;3.15;;;0.80;;
64826;SDS011;51265;53.972;12.286;2024-01-07T01:36:37;2.53;;;0.85;;
64826;SDS011;51265;53.972;12.286;2024-01-07T01:39:03;2.95;;;0.85;;
64826;SDS011;51265;53.972;12.286;2024-01-07T01:41:30;1.10;;;0.60;;
64826;SDS011;51265;53.972;12.286;2024-01-07T01:44:00;2.03;;;1.00;;
64826;SDS011;51265;53.972;12.286;2024-01-07T01:46:26;1.83;;;0.82;;
64826;SDS011;51265;53.972;12.286;2024-01-07T01:48:55;1.45;;;0.70;;
64826;SDS011;51265;53.972;12.286;2024-01-07T01:51:22;2.63;;;0.70;;
64826;SDS011;51265;53.972;12.286;2024-01-07T01:53:48;1.35;;;0.77;;
64826;SDS011;51265;53.972;12.286;2024-01-07T01:56:16;1.55;;;0.75;;
64826;SDS011;51265;53.972;12.286;2024-01-07T01:58:46;0.70;;;0.50;;
64826;SDS011;51265;53.972;12.286;2024-01-07T02:01:13;0.85;;;0.55;;
64826;SDS011;51265;53.972;12.286;2024-01-07T02:03:39;1.40;;;0.52;;
64826;SDS011;51265;53.972;12.286;2024-01-07T02:06:06;1.17;;;0.70;;
64826;SDS011;51265;53.972;12.286;2024-01-07T02:08:33;0.82;;;0.50;;
64826;SDS011;51265;53.972;12.286;2024-01-07T02:11:13;1.95;;;0.70;;
64826;SDS011;51265;53.972;12.286;2024-01-07T02:13:46;1.15;;;0.82;;
64826;SDS011;51265;53.972;12.286;2024-01-07T02:16:12;2.08;;;0.93;;
64826;SDS011;51265;53.972;12.286;2024-01-07T02:18:42;3.53;;;1.00;;
64826;SDS011;51265;53.972;12.286;2024-01-07T02:21:10;2.42;;;0.70;;
64826;SDS011;51265;53.972;12.286;2024-01-07T02:23:36;3.60;;;0.90;;
64826;SDS011;51265;53.972;12.286;2024-01-07T02:26:03;3.20;;;1.00;;
64826;SDS011;51265;53.972;12.286;2024-01-07T02:28:30;1.88;;;1.02;;
64826;SDS011;51265;53.972;12.286;2024-01-07T02:30:56;1.85;;;0.82;;
64826;SDS011;51265;53.972;12.286;2024-01-07T02:33:22;2.92;;;0.90;;
64826;SDS011;51265;53.972;12.286;2024-01-07T02:35:48;2.28;;;1.10;;
64826;SDS011;51265;53.972;12.286;2024-01-07T02:38:15;1.70;;;1.00;;
64826;SDS011;51265;53.972;12.286;2024-01-07T02:40:41;1.92;;;1.05;;
64826;SDS011;51265;53.972;12.286;2024-01-07T02:43:07;1.42;;;0.75;;
64826;SDS011;51265;53.972;12.286;2024-01-07T02:45:34;3.72;;;0.70;;
64826;SDS011;51265;53.972;12.286;2024-01-07T02:48:01;1.70;;;0.98;;
64826;SDS011;51265;53.972;12.286;2024-01-07T02:50:27;2.75;;;1.00;;
64826;SDS011;51265;53.972;12.286;2024-01-07T02:52:53;3.03;;;0.77;;
64826;SDS011;51265;53.972;12.286;2024-01-07T02:55:20;1.50;;;0.80;;
64826;SDS011;51265;53.972;12.286;2024-01-07T02:57:46;1.63;;;0.77;;
64826;SDS011;51265;53.972;12.286;2024-01-07T03:00:12;1.85;;;0.90;;
64826;SDS011;51265;53.972;12.286;2024-01-07T03:02:38;1.45;;;0.57;;
64826;SDS011;51265;53.972;12.286;2024-01-07T03:05:05;1.25;;;0.55;;
64826;SDS011;51265;53.972;12.286;2024-01-07T03:07:31;0.68;;;0.30;;
64826;SDS011;51265;53.972;12.286;2024-01-07T03:09:57;0.65;;;0.40;;
64826;SDS011;51265;53.972;12.286;2024-01-07T03:12:23;0.73;;;0.50;;
64826;SDS011;51265;53.972;12.286;2024-01-07T03:14:50;0.90;;;0.50;;
64826;SDS011;51265;53.972;12.286;2024-01-07T03:17:16;2.10;;;0.52;;
64826;SDS011;51265;53.972;12.286;2024-01-07T03:19:43;1.90;;;0.57;;
64826;SDS011;51265;53.972;12.286;2024-01-07T03:22:09;0.68;;;0.50;;
64826;SDS011;51265;53.972;12.286;2024-01-07T03:24:35;1.83;;;0.70;;
64826;SDS011;51265;53.972;12.286;2024-01-07T03:27:01;2.08;;;0.55;;
64826;SDS011;51265;53.972;12.286;2024-01-07T03:29:27;2.72;;;0.60;;
64826;SDS011;51265;53.972;12.286;2024-01-07T03:31:53;0.70;;;0.40;;
64826;SDS011;51265;53.972;12.286;2024-01-07T03:34:19;1.05;;;0.20;;
64826;SDS011;51265;53.972;12.286;2024-01-07T03:36:46;0.85;;;0.35;;
64826;SDS011;51265;53.972;12.286;2024-01-07T03:39:12;1.40;;;0.52;;
64826;SDS011;51265;53.972;12.286;2024-01-07T03:41:38;1.20;;;0.40;;
64826;SDS011;51265;53.972;12.286;2024-01-07T03:44:04;1.25;;;0.40;;
64826;SDS011;51265;53.972;12.286;2024-01-07T03:46:30;0.50;;;0.40;;
64826;SDS011;51265;53.972;12.286;2024-01-07T03:48:56;2.47;;;0.40;;
64826;SDS011;51265;53.972;12.286;2024-01-07T03:51:22;0.98;;;0.30;;
64826;SDS011;51265;53.972;12.286;2024-01-07T03:53:48;1.65;;;0.40;;
64826;SDS011;51265;53.972;12.286;2024-01-07T03:56:15;1.55;;;0.50;;
64826;SDS011;51265;53.972;12.286;2024-01-07T03:58:41;1.95;;;0.50;;
64826;SDS011;51265;53.972;12.286;2024-01-07T04:01:07;1.20;;;0.30;;
64826;SDS011;51265;53.972;12.286;2024-01-07T04:03:33;0.75;;;0.40;;
64826;SDS011;51265;53.972;12.286;2024-01-07T04:05:59;0.75;;;0.30;;
64826;SDS011;51265;53.972;12.286;2024-01-07T04:08:25;1.85;;;0.50;;
64826;SDS011;51265;53.972;12.286;2024-01-07T04:10:51;2.13;;;0.40;;
64826;SDS011;51265;53.972;12.286;2024-01-07T04:13:18;0.77;;;0.30;;
64826;SDS011;51265;53.972;12.286;2024-01-07T04:15:44;0.45;;;0.30;;
64826;SDS011;51265;53.972;12.286;2024-01-07T04:18:10;0.20;;;0.20;;
64826;SDS011;51265;53.972;12.286;2024-01-07T04:20:36;0.70;;;0.40;;
64826;SDS011;51265;53.972;12.286;2024-01-07T04:23:02;0.57;;;0.40;;
64826;SDS011;51265;53.972;12.286;2024-01-07T04:25:28;1.52;;;0.40;;
64826;SDS011;51265;53.972;12.286;2024-01-07T04:27:55;1.05;;;0.40;;
64826;SDS011;51265;53.972;12.286;2024-01-07T04:30:21;0.45;;;0.30;;
64826;SDS011;51265;53.972;12.286;2024-01-07T04:32:47;0.50;;;0.30;;
64826;SDS011;51265;53.972;12.286;2024-01-07T04:35:13;0.80;;;0.30;;
64826;SDS011;51265;53.972;12.286;2024-01-07T04:37:39;0.30;;;0.15;;
64826;SDS011;51265;53.972;12.286;2024-01-07T04:40:05;0.40;;;0.30;;
64826;SDS011;51265;53.972;12.286;2024-01-07T04:42:32;1.77;;;0.63;;
64826;SDS011;51265;53.972;12.286;2024-01-07T04:44:58;0.63;;;0.40;;
64826;SDS011;51265;53.972;12.286;2024-01-07T04:47:28;0.68;;;0.30;;
64826;SDS011;51265;53.972;12.286;2024-01-07T04:49:56;0.60;;;0.30;;
64826;SDS011;51265;53.972;12.286;2024-01-07T04:55:10;2.72;;;0.50;;
64826;SDS011;51265;53.972;12.286;2024-01-07T04:57:37;0.60;;;0.45;;
64826;SDS011;51265;53.972;12.286;2024-01-07T05:00:04;0.50;;;0.40;;
64826;SDS011;51265;53.972;12.286;2024-01-07T05:02:31;1.33;;;0.45;;
64826;SDS011;51265;53.972;12.286;2024-01-07T05:04:57;1.77;;;0.50;;
64826;SDS011;51265;53.972;12.286;2024-01-07T05:07:23;1.00;;;0.45;;
64826;SDS011;51265;53.972;12.286;2024-01-07T05:09:49;0.80;;;0.38;;
64826;SDS011;51265;53.972;12.286;2024-01-07T05:12:15;1.10;;;0.40;;
64826;SDS011;51265;53.972;12.286;2024-01-07T05:14:42;0.57;;;0.50;;
64826;SDS011;51265;53.972;12.286;2024-01-07T05:17:09;0.98;;;0.45;;
64826;SDS011;51265;53.972;12.286;2024-01-07T05:19:35;1.38;;;0.60;;
64826;SDS011;51265;53.972;12.286;2024-01-07T05:22:01;0.68;;;0.45;;
64826;SDS011;51265;53.972;12.286;2024-01-07T05:24:27;1.92;;;0.90;;
64826;SDS011;51265;53.972;12.286;2024-01-07T05:26:54;1.33;;;0.65;;
64826;SDS011;51265;53.972;12.286;2024-01-07T05:29:20;3.58;;;0.73;;
64826;SDS011;51265;53.972;12.286;2024-01-07T05:31:46;2.33;;;0.88;;
64826;SDS011;51265;53.972;12.286;2024-01-07T05:34:13;2.97;;;0.80;;
64826;SDS011;51265;53.972;12.286;2024-01-07T05:36:39;2.55;;;0.80;;
64826;SDS011;51265;53.972;12.286;2024-01-07T05:39:05;2.13;;;0.75;;
64826;SDS011;51265;53.972;12.286;2024-01-07T05:41:32;3.20;;;1.08;;
64826;SDS011;51265;53.972;12.286;2024-01-07T05:43:58;2.03;;;0.98;;
64826;SDS011;51265;53.972;12.286;2024-01-07T05:46:25;1.88;;;0.82;;
64826;SDS011;51265;53.972;12.286;2024-01-07T05:48:51;1.60;;;0.88;;
64826;SDS011;51265;53.972;12.286;2024-01-07T05:51:17;1.40;;;1.00;;
64826;SDS011;51265;53.972;12.286;2024-01-07T05:53:43;1.20;;;0.73;;
64826;SDS011;51265;53.972;12.286;2024-01-07T05:56:10;1.05;;;0.88;;
64826;SDS011;51265;53.972;12.286;2024-01-07T05:58:36;7.35;;;0.90;;
64826;SDS011;51265;53.972;12.286;2024-01-07T06:01:03;2.17;;;0.85;;
64826;SDS011;51265;53.972;12.286;2024-01-07T06:03:29;1.40;;;1.00;;
64826;SDS011;51265;53.972;12.286;2024-01-07T06:05:55;2.20;;;1.10;;
64826;SDS011;51265;53.972;12.286;2024-01-07T06:08:23;2.20;;;0.93;;
64826;SDS011;51265;53.972;12.286;2024-01-07T06:10:49;1.40;;;1.08;;
64826;SDS011;51265;53.972;12.286;2024-01-07T06:13:15;4.70;;;1.20;;
64826;SDS011;51265;53.972;12.286;2024-01-07T06:15:42;2.85;;;1.00;;
64826;SDS011;51265;53.972;12.286;2024-01-07T06:18:08;1.80;;;0.73;;
64826;SDS011;51265;53.972;12.286;2024-01-07T06:20:34;1.65;;;1.13;;
64826;SDS011;51265;53.972;12.286;2024-01-07T06:23:00;2.38;;;0.70;;
64826;SDS011;51265;53.972;12.286;2024-01-07T06:25:26;1.48;;;0.90;;
64826;SDS011;51265;53.972;12.286;2024-01-07T06:27:52;1.98;;;1.48;;
64826;SDS011;51265;53.972;12.286;2024-01-07T06:30:19;1.58;;;1.08;;
64826;SDS011;51265;53.972;12.286;2024-01-07T06:32:45;4.47;;;1.00;;
64826;SDS011;51265;53.972;12.286;2024-01-07T06:35:11;2.30;;;0.90;;
64826;SDS011;51265;53.972;12.286;2024-01-07T06:37:37;1.25;;;0.75;;
64826;SDS011;51265;53.972;12.286;2024-01-07T06:40:04;1.17;;;0.57;;
64826;SDS011;51265;53.972;12.286;2024-01-07T06:42:30;2.20;;;0.70;;
64826;SDS011;51265;53.972;12.286;2024-01-07T06:44:56;1.10;;;0.70;;
64826;SDS011;51265;53.972;12.286;2024-01-07T06:47:22;1.02;;;0.70;;
64826;SDS011;51265;53.972;12.286;2024-01-07T06:49:49;2.10;;;0.80;;
64826;SDS011;51265;53.972;12.286;2024-01-07T06:52:15;2.45;;;0.80;;
64826;SDS011;51265;53.972;12.286;2024-01-07T06:54:41;2.75;;;1.13;;
64826;SDS011;51265;53.972;12.286;2024-01-07T06:57:07;1.65;;;1.00;;
64826;SDS011;51265;53.972;12.286;2024-01-07T06:59:33;2.85;;;0.82;;
64826;SDS011;51265;53.972;12.286;2024-01-07T07:02:00;2.30;;;1.50;;
64826;SDS011;51265;53.972;12.286;2024-01-07T07:04:26;3.05;;;0.98;;
64826;SDS011;51265;53.972;12.286;2024-01-07T07:06:52;5.07;;;2.78;;
64826;SDS011;51265;53.972;12.286;2024-01-07T07:09:18;2.40;;;1.38;;
64826;SDS011;51265;53.972;12.286;2024-01-07T07:11:44;4.50;;;1.10;;
64826;SDS011;51265;53.972;12.286;2024-01-07T07:14:11;1.23;;;1.02;;
64826;SDS011;51265;53.972;12.286;2024-01-07T07:16:37;4.15;;;1.05;;
64826;SDS011;51265;53.972;12.286;2024-01-07T07:19:03;1.42;;;0.80;;
64826;SDS011;51265;53.972;12.286;2024-01-07T07:21:29;2.30;;;0.95;;
64826;SDS011;51265;53.972;12.286;2024-01-07T07:23:55;1.42;;;0.90;;
64826;SDS011;51265;53.972;12.286;2024-01-07T07:26:22;2.30;;;0.95;;
64826;SDS011;51265;53.972;12.286;2024-01-07T07:28:48;3.75;;;1.00;;
64826;SDS011;51265;53.972;12.286;2024-01-07T07:31:15;1.65;;;0.93;;
64826;SDS011;51265;53.972;12.286;2024-01-07T07:33:41;2.83;;;1.00;;
64826;SDS011;51265;53.972;12.286;2024-01-07T07:36:07;2.05;;;0.95;;
64826;SDS011;51265;53.972;12.286;2024-01-07T07:38:34;1.77;;;0.80;;
64826;SDS011;51265;53.972;12.286;2024-01-07T07:41:00;2.28;;;1.00;;
64826;SDS011;51265;53.972;12.286;2024-01-07T07:43:26;2.20;;;1.02;;
64826;SDS011;51265;53.972;12.286;2024-01-07T07:45:52;1.42;;;0.90;;
64826;SDS011;51265;53.972;12.286;2024-01-07T07:48:18;2.30;;;0.80;;
64826;SDS011;51265;53.972;12.286;2024-01-07T07:50:45;3.53;;;1.00;;
64826;SDS011;51265;53.972;12.286;2024-01-07T07:53:11;2.00;;;0.88;;
64826;SDS011;51265;53.972;12.286;2024-01-07T07:55:37;2.30;;;1.30;;
64826;SDS011;51265;53.972;12.286;2024-01-07T07:58:03;2.15;;;1.55;;
64826;SDS011;51265;53.972;12.286;2024-01-07T08:00:30;1.73;;;1.20;;
64826;SDS011;51265;53.972;12.286;2024-01-07T08:02:56;1.92;;;1.02;;
64826;SDS011;51265;53.972;12.286;2024-01-07T08:05:22;4.05;;;1.20;;
64826;SDS011;51265;53.972;12.286;2024-01-07T08:07:48;1.55;;;1.02;;
64826;SDS011;51265;53.972;12.286;2024-01-07T08:10:14;4.13;;;1.40;;
64826;SDS011;51265;53.972;12.286;2024-01-07T08:12:41;1.98;;;1.20;;
64826;SDS011;51265;53.972;12.286;2024-01-07T08:15:07;2.83;;;1.38;;
64826;SDS011;51265;53.972;12.286;2024-01-07T08:17:34;1.80;;;1.10;;
64826;SDS011;51265;53.972;12.286;2024-01-07T08:20:00;1.30;;;1.00;;
64826;SDS011;51265;53.972;12.286;2024-01-07T08:22:27;2.03;;;1.23;;
64826;SDS011;51265;53.972;12.286;2024-01-07T08:24:53;1.45;;;0.98;;
64826;SDS011;51265;53.972;12.286;2024-01-07T08:27:20;2.38;;;1.02;;
64826;SDS011;51265;53.972;12.286;2024-01-07T08:29:46;2.03;;;1.00;;
64826;SDS011;51265;53.972;12.286;2024-01-07T08:32:12;1.98;;;1.05;;
64826;SDS011;51265;53.972;12.286;2024-01-07T08:34:38;1.65;;;1.13;;
64826;SDS011;51265;53.972;12.286;2024-01-07T08:37:06;1.45;;;0.93;;
64826;SDS011;51265;53.972;12.286;2024-01-07T08:39:34;1.67;;;1.00;;
64826;SDS011;51265;53.972;12.286;2024-01-07T08:42:00;2.95;;;1.08;;
64826;SDS011;51265;53.972;12.286;2024-01-07T08:44:26;1.88;;;0.93;;
64826;SDS011;51265;53.972;12.286;2024-01-07T08:46:52;3.20;;;1.02;;
64826;SDS011;51265;53.972;12.286;2024-01-07T08:49:18;2.40;;;1.15;;
64826;SDS011;51265;53.972;12.286;2024-01-07T08:51:45;2.60;;;1.35;;
64826;SDS011;51265;53.972;12.286;2024-01-07T08:54:11;1.67;;;0.90;;
64826;SDS011;51265;53.972;12.286;2024-01-07T08:56:37;2.13;;;1.02;;
64826;SDS011;51265;53.972;12.286;2024-01-07T08:59:05;2.35;;;0.98;;
64826;SDS011;51265;53.972;12.286;2024-01-07T09:01:31;2.25;;;0.95;;
64826;SDS011;51265;53.972;12.286;2024-01-07T09:03:57;3.67;;;1.10;;
64826;SDS011;51265;53.972;12.286;2024-01-07T09:06:23;4.22;;;0.90;;
64826;SDS011;51265;53.972;12.286;2024-01-07T09:08:50;1.25;;;0.95;;
64826;SDS011;51265;53.972;12.286;2024-01-07T09:11:18;2.38;;;1.00;;
64826;SDS011;51265;53.972;12.286;2024-01-07T09:13:45;2.17;;;1.30;;
64826;SDS011;51265;53.972;12.286;2024-01-07T09:16:14;2.05;;;1.05;;
64826;SDS011;51265;53.972;12.286;2024-01-07T09:18:41;1.92;;;1.17;;
64826;SDS011;51265;53.972;12.286;2024-01-07T09:21:09;2.28;;;1.10;;
64826;SDS011;51265;53.972;12.286;2024-01-07T09:23:35;1.20;;;0.90;;
64826;SDS011;51265;53.972;12.286;2024-01-07T09:26:02;1.80;;;1.20;;
64826;SDS011;51265;53.972;12.286;2024-01-07T09:28:28;3.30;;;1.27;;
64826;SDS011;51265;53.972;12.286;2024-01-07T09:30:54;3.05;;;1.60;;
64826;SDS011;51265;53.972;12.286;2024-01-07T09:33:20;5.25;;;2.92;;
64826;SDS011;51265;53.972;12.286;2024-01-07T09:35:52;3.00;;;1.13;;
64826;SDS011;51265;53.972;12.286;2024-01-07T09:38:20;3.50;;;0.68;;
64826;SDS011;51265;53.972;12.286;2024-01-07T09:40:46;3.00;;;0.65;;
64826;SDS011;51265;53.972;12.286;2024-01-07T09:43:13;1.95;;;0.70;;
64826;SDS011;51265;53.972;12.286;2024-01-07T09:45:41;1.23;;;0.68;;
64826;SDS011;51265;53.972;12.286;2024-01-07T09:48:11;1.42;;;0.70;;
64826;SDS011;51265;53.972;12.286;2024-01-07T09:50:37;0.95;;;0.77;;
64826;SDS011;51265;53.972;12.286;2024-01-07T09:53:03;1.52;;;0.60;;
64826;SDS011;51265;53.972;12.286;2024-01-07T09:55:36;1.55;;;0.65;;
64826;SDS011;51265;53.972;12.286;2024-01-07T09:58:10;2.10;;;0.70;;
64826;SDS011;51265;53.972;12.286;2024-01-07T10:00:36;1.40;;;1.00;;
64826;SDS011;51265;53.972;12.286;2024-01-07T10:03:03;1.20;;;0.70;;
64826;SDS011;51265;53.972;12.286;2024-01-07T10:05:29;1.52;;;0.75;;
64826;SDS011;51265;53.972;12.286;2024-01-07T10:07:56;1.08;;;0.70;;
64826;SDS011;51265;53.972;12.286;2024-01-07T10:10:23;1.70;;;0.47;;
64826;SDS011;51265;53.972;12.286;2024-01-07T10:12:49;1.65;;;0.80;;
64826;SDS011;51265;53.972;12.286;2024-01-07T10:15:18;1.20;;;0.70;;
64826;SDS011;51265;53.972;12.286;2024-01-07T10:17:45;1.35;;;0.73;;
64826;SDS011;51265;53.972;12.286;2024-01-07T10:20:11;1.33;;;0.70;;
64826;SDS011;51265;53.972;12.286;2024-01-07T10:22:39;1.63;;;0.77;;
64826;SDS011;51265;53.972;12.286;2024-01-07T10:25:05;1.02;;;0.70;;
64826;SDS011;51265;53.972;12.286;2024-01-07T10:27:35;1.42;;;0.70;;
64826;SDS011;51265;53.972;12.286;2024-01-07T10:30:02;0.73;;;0.50;;
64826;SDS011;51265;53.972;12.286;2024-01-07T10:32:29;2.13;;;0.60;;
64826;SDS011;51265;53.972;12.286;2024-01-07T10:34:57;1.00;;;0.70;;
64826;SDS011;51265;53.972;12.286;2024-01-07T10:37:29;1.73;;;0.70;;
64826;SDS011;51265;53.972;12.286;2024-01-07T10:39:58;1.23;;;0.60;;
64826;SDS011;51265;53.972;12.286;2024-01-07T10:42:32;1.00;;;0.52;;
64826;SDS011;51265;53.972;12.286;2024-01-07T10:45:00;1.48;;;0.80;;
64826;SDS011;51265;53.972;12.286;2024-01-07T10:47:28;1.00;;;0.80;;
64826;SDS011;51265;53.972;12.286;2024-01-07T10:49:59;2.17;;;1.25;;
64826;SDS011;51265;53.972;12.286;2024-01-07T10:52:28;2.03;;;0.90;;
64826;SDS011;51265;53.972;12.286;2024-01-07T10:54:56;1.67;;;1.05;;
64826;SDS011;51265;53.972;12.286;2024-01-07T10:57:28;2.00;;;0.60;;
64826;SDS011;51265;53.972;12.286;2024-01-07T11:00:03;0.98;;;0.47;;
64826;SDS011;51265;53.972;12.286;2024-01-07T11:02:54;2.28;;;0.60;;
64826;SDS011;51265;53.972;12.286;2024-01-07T11:05:29;2.55;;;0.68;;
64826;SDS011;51265;53.972;12.286;2024-01-07T11:10:57;0.73;;;0.50;;
64826;SDS011;51265;53.972;12.286;2024-01-07T11:16:06;0.95;;;0.50;;
64826;SDS011;51265;53.972;12.286;2024-01-07T11:18:40;0.90;;;0.47;;
64826;SDS011;51265;53.972;12.286;2024-01-07T11:21:20;1.10;;;0.52;;
64826;SDS011;51265;53.972;12.286;2024-01-07T11:23:47;1.15;;;0.40;;
64826;SDS011;51265;53.972;12.286;2024-01-07T11:26:13;0.73;;;0.50;;
64826;SDS011;51265;53.972;12.286;2024-01-07T11:31:15;1.98;;;0.98;;
64826;SDS011;51265;53.972;12.286;2024-01-07T11:33:46;1.02;;;0.50;;
64826;SDS011;51265;53.972;12.286;2024-01-07T11:36:14;0.90;;;0.50;;
64826;SDS011;51265;53.972;12.286;2024-01-07T11:38:41;2.63;;;0.88;;
64826;SDS011;51265;53.972;12.286;2024-01-07T11:41:12;0.93;;;0.40;;
64826;SDS011;51265;53.972;12.286;2024-01-07T11:43:52;1.20;;;0.70;;
64826;SDS011;51265;53.972;12.286;2024-01-07T11:46:23;3.30;;;1.23;;
64826;SDS011;51265;53.972;12.286;2024-01-07T11:48:52;0.77;;;0.50;;
64826;SDS011;51265;53.972;12.286;2024-01-07T11:51:27;0.70;;;0.40;;
64826;SDS011;51265;53.972;12.286;2024-01-07T11:53:57;1.20;;;0.68;;
64826;SDS011;51265;53.972;12.286;2024-01-07T11:56:24;0.50;;;0.50;;
64826;SDS011;51265;53.972;12.286;2024-01-07T11:58:51;1.50;;;0.70;;
64826;SDS011;51265;53.972;12.286;2024-01-07T12:01:18;1.63;;;1.00;;
64826;SDS011;51265;53.972;12.286;2024-01-07T12:03:45;0.68;;;0.40;;
64826;SDS011;51265;53.972;12.286;2024-01-07T12:06:12;0.70;;;0.52;;
64826;SDS011;51265;53.972;12.286;2024-01-07T12:08:42;0.52;;;0.43;;
64826;SDS011;51265;53.972;12.286;2024-01-07T12:11:13;1.20;;;0.73;;
64826;SDS011;51265;53.972;12.286;2024-01-07T12:13:39;2.17;;;0.75;;
64826;SDS011;51265;53.972;12.286;2024-01-07T12:16:06;1.60;;;0.77;;
64826;SDS011;51265;53.972;12.286;2024-01-07T12:18:43;0.73;;;0.70;;
64826;SDS011;51265;53.972;12.286;2024-01-07T12:21:10;3.13;;;0.82;;
64826;SDS011;51265;53.972;12.286;2024-01-07T12:23:36;1.27;;;0.68;;
64826;SDS011;51265;53.972;12.286;2024-01-07T12:26:07;1.05;;;0.77;;
64826;SDS011;51265;53.972;12.286;2024-01-07T12:28:34;4.95;;;1.00;;
64826;SDS011;51265;53.972;12.286;2024-01-07T12:31:00;1.40;;;0.70;;
64826;SDS011;51265;53.972;12.286;2024-01-07T12:33:27;1.40;;;0.70;;
64826;SDS011;51265;53.972;12.286;2024-01-07T12:35:55;1.08;;;0.82;;
64826;SDS011;51265;53.972;12.286;2024-01-07T12:38:24;1.05;;;0.70;;
64826;SDS011;51265;53.972;12.286;2024-01-07T12:40:51;1.58;;;0.80;;
64826;SDS011;51265;53.972;12.286;2024-01-07T12:43:18;0.82;;;0.68;;
64826;SDS011;51265;53.972;12.286;2024-01-07T12:45:45;2.22;;;0.70;;
64826;SDS011;51265;53.972;12.286;2024-01-07T12:48:12;1.98;;;0.68;;
64826;SDS011;51265;53.972;12.286;2024-01-07T12:50:38;1.80;;;0.95;;
64826;SDS011;51265;53.972;12.286;2024-01-07T12:53:04;3.28;;;1.02;;
64826;SDS011;51265;53.972;12.286;2024-01-07T12:55:31;1.23;;;0.80;;
64826;SDS011;51265;53.972;12.286;2024-01-07T12:57:57;1.15;;;0.90;;
64826;SDS011;51265;53.972;12.286;2024-01-07T13:00:27;1.83;;;1.08;;
64826;SDS011;51265;53.972;12.286;2024-01-07T13:02:54;2.25;;;1.15;;
64826;SDS011;51265;53.972;12.286;2024-01-07T13:05:21;1.90;;;1.05;;
64826;SDS011;51265;53.972;12.286;2024-01-07T13:07:47;2.05;;;1.10;;
64826;SDS011;51265;53.972;12.286;2024-01-07T13:10:13;1.98;;;0.90;;
64826;SDS011;51265;53.972;12.286;2024-01-07T13:12:40;1.63;;;0.98;;
64826;SDS011;51265;53.972;12.286;2024-01-07T13:15:07;1.92;;;1.20;;
64826;SDS011;51265;53.972;12.286;2024-01-07T13:17:33;1.63;;;1.10;;
64826;SDS011;51265;53.972;12.286;2024-01-07T13:20:00;1.38;;;1.10;;
64826;SDS011;51265;53.972;12.286;2024-01-07T13:22:26;2.40;;;0.95;;
64826;SDS011;51265;53.972;12.286;2024-01-07T13:24:52;2.33;;;1.20;;
64826;SDS011;51265;53.972;12.286;2024-01-07T13:27:22;1.58;;;1.38;;
64826;SDS011;51265;53.972;12.286;2024-01-07T13:29:49;1.60;;;0.95;;
64826;SDS011;51265;53.972;12.286;2024-01-07T13:32:16;1.70;;;1.10;;
64826;SDS011;51265;53.972;12.286;2024-01-07T13:34:43;2.95;;;1.27;;
64826;SDS011;51265;53.972;12.286;2024-01-07T13:37:09;3.90;;;1.23;;
64826;SDS011;51265;53.972;12.286;2024-01-07T13:39:36;3.22;;;1.65;;
64826;SDS011;51265;53.972;12.286;2024-01-07T13:42:03;2.20;;;1.15;;
64826;SDS011;51265;53.972;12.286;2024-01-07T13:44:29;2.75;;;1.40;;
64826;SDS011;51265;53.972;12.286;2024-01-07T13:46:56;3.33;;;1.70;;
64826;SDS011;51265;53.972;12.286;2024-01-07T13:49:22;3.28;;;1.75;;
64826;SDS011;51265;53.972;12.286;2024-01-07T13:51:48;3.85;;;2.22;;
64826;SDS011;51265;53.972;12.286;2024-01-07T13:54:14;3.28;;;2.15;;
64826;SDS011;51265;53.972;12.286;2024-01-07T13:56:42;3.97;;;1.65;;
64826;SDS011;51265;53.972;12.286;2024-01-07T13:59:10;2.08;;;1.30;;
64826;SDS011;51265;53.972;12.286;2024-01-07T14:01:37;2.45;;;1.40;;
64826;SDS011;51265;53.972;12.286;2024-01-07T14:04:03;2.15;;;1.50;;
64826;SDS011;51265;53.972;12.286;2024-01-07T14:06:30;1.88;;;1.52;;
64826;SDS011;51265;53.972;12.286;2024-01-07T14:08:57;2.33;;;1.60;;
64826;SDS011;51265;53.972;12.286;2024-01-07T14:11:24;3.08;;;1.35;;
64826;SDS011;51265;53.972;12.286;2024-01-07T14:13:50;2.75;;;1.33;;
64826;SDS011;51265;53.972;12.286;2024-01-07T14:16:16;1.60;;;1.20;;
64826;SDS011;51265;53.972;12.286;2024-01-07T14:18:42;2.30;;;1.20;;
64826;SDS011;51265;53.972;12.286;2024-01-07T14:21:09;2.53;;;1.13;;
64826;SDS011;51265;53.972;12.286;2024-01-07T14:23:35;2.72;;;1.33;;
64826;SDS011;51265;53.972;12.286;2024-01-07T14:26:01;3.30;;;1.40;;
64826;SDS011;51265;53.972;12.286;2024-01-07T14:28:29;1.90;;;1.15;;
64826;SDS011;51265;53.972;12.286;2024-01-07T14:30:55;1.60;;;1.10;;
64826;SDS011;51265;53.972;12.286;2024-01-07T14:33:21;2.78;;;1.38;;
64826;SDS011;51265;53.972;12.286;2024-01-07T14:35:47;2.85;;;1.20;;
64826;SDS011;51265;53.972;12.286;2024-01-07T14:38:13;2.60;;;1.10;;
64826;SDS011;51265;53.972;12.286;2024-01-07T14:40:40;2.40;;;0.95;;
64826;SDS011;51265;53.972;12.286;2024-01-07T14:43:07;2.03;;;1.30;;